Time;durP1;ratioP1;P1;durP2;ratioP2;P2;SDS_P1;SDS_P2;PMS_P1;PMS_P2;Temp;Humidity;BMP_temperature;BMP_pressure;BME280_temperature;BME280_humidity;BME280_pressure;Samples;Min_cycle;Max_cycle;Signal;HPM_P1;HPM_P2
2023/06/20 00:02:12;;;;;;;17.20;15.07;;;24.40;66.80;;;;;;4642402;55;21523;-36
2023/06/20 00:07:12;;;;;;;17.40;15.60;;;24.40;66.80;;;;;;4703254;55;21081;-36
2023/06/20 00:12:13;;;;;;;16.92;15.23;;;24.40;66.70;;;;;;4651152;56;21037;-35
2023/06/20 00:17:14;;;;;;;16.52;14.93;;;24.40;66.70;;;;;;4705238;55;21563;-38
2023/06/20 00:22:15;;;;;;;17.23;15.52;;;24.40;66.80;;;;;;4615327;59;21034;-34
2023/06/20 00:27:16;;;;;;;16.12;14.52;;;24.40;66.80;;;;;;4720449;55;21558;-36
2023/06/20 00:32:16;;;;;;;16.98;15.18;;;24.30;66.70;;;;;;4668702;55;21058;-35
2023/06/20 00:37:17;;;;;;;16.08;14.48;;;24.40;66.70;;;;;;4702135;55;21121;-34
2023/06/20 00:42:19;;;;;;;15.88;14.18;;;24.40;66.70;;;;;;4615780;60;21331;-34
2023/06/20 00:47:20;;;;;;;15.98;14.38;;;24.30;66.70;;;;;;4621016;56;21148;-36
2023/06/20 00:52:22;;;;;;;16.10;14.43;;;24.30;66.70;;;;;;4747888;55;21543;-38
2023/06/20 00:57:23;;;;;;;16.17;14.52;;;24.30;66.70;;;;;;4643663;56;21073;-37
2023/06/20 01:02:24;;;;;;;15.82;14.23;;;24.30;66.70;;;;;;4618972;55;21546;-37
2023/06/20 01:07:50;;;;;;;15.13;13.62;;;24.30;66.70;;;;;;4615379;60;21009;-37
2023/06/20 01:13:23;;;;;;;15.38;13.88;;;24.30;66.70;;;;;;4840693;56;21467;-35
2023/06/20 01:20:04;;;;;;;15.15;13.75;;;24.30;66.60;;;;;;4746292;56;21029;-33
2023/06/20 01:25:11;;;;;;;15.95;14.27;;;24.30;66.70;;;;;;4616237;60;21013;-37
2023/06/20 01:30:23;;;;;;;14.95;13.50;;;24.30;66.70;;;;;;4616113;56;21002;-38
2023/06/20 01:35:29;;;;;;;15.48;13.98;;;24.30;66.60;;;;;;4650735;56;21022;-35
2023/06/20 01:40:33;;;;;;;14.73;13.23;;;24.30;66.60;;;;;;4623663;56;21433;-37
2023/06/20 01:45:39;;;;;;;14.98;13.57;;;24.30;66.60;;;;;;4649348;56;21530;-37
2023/06/20 01:50:41;;;;;;;16.13;13.83;;;24.30;66.60;;;;;;4615583;58;21081;-36
2023/06/20 01:55:42;;;;;;;15.00;13.50;;;24.30;66.60;;;;;;4703845;56;21045;-36
2023/06/20 02:00:45;;;;;;;14.13;12.80;;;24.30;66.60;;;;;;4663890;56;21100;-38
2023/06/20 02:05:48;;;;;;;15.98;14.27;;;24.30;66.60;;;;;;4615589;57;21470;-35
2023/06/20 02:10:50;;;;;;;14.63;13.23;;;24.30;66.60;;;;;;4616765;56;21017;-35
2023/06/20 02:15:54;;;;;;;14.52;13.07;;;24.30;66.60;;;;;;4665679;56;21121;-36
2023/06/20 02:20:56;;;;;;;14.77;13.38;;;24.30;66.50;;;;;;4652477;56;21021;-35
2023/06/20 02:26:08;;;;;;;14.20;12.80;;;24.30;66.50;;;;;;4727663;56;21100;-37
2023/06/20 02:31:13;;;;;;;13.82;12.52;;;24.30;66.50;;;;;;4627814;56;21480;-36
2023/06/20 02:36:15;;;;;;;14.00;12.60;;;24.30;66.50;;;;;;4701241;56;21116;-37
2023/06/20 02:41:19;;;;;;;14.40;12.90;;;24.30;66.50;;;;;;4626131;56;21049;-36
2023/06/20 02:46:36;;;;;;;13.32;12.05;;;24.30;66.50;;;;;;4679836;56;21515;-35
2023/06/20 02:51:40;;;;;;;;;;;24.30;66.40;;;;;;4626234;56;21021;-36
2023/06/20 02:56:43;;;;;;;14.43;13.00;;;24.30;66.40;;;;;;4645480;55;20123;-38
2023/06/20 03:01:47;;;;;;;13.60;12.30;;;24.30;66.40;;;;;;4639893;56;21025;-35
2023/06/20 03:06:52;;;;;;;13.18;11.88;;;24.30;66.40;;;;;;4714175;56;21558;-37
2023/06/20 03:11:53;;;;;;;13.73;12.50;;;24.30;66.40;;;;;;4953686;56;21125;-35
2023/06/20 03:16:54;;;;;;;14.13;12.68;;;24.30;66.40;;;;;;4647699;55;21112;-35
2023/06/20 03:21:55;;;;;;;13.05;11.70;;;24.30;66.30;;;;;;4637617;55;21503;-34
2023/06/20 03:26:56;;;;;;;14.07;12.73;;;24.30;66.30;;;;;;4774360;55;21020;-36
2023/06/20 03:31:56;;;;;;;14.00;12.68;;;24.30;66.30;;;;;;4617171;55;21567;-33
2023/06/20 03:36:57;;;;;;;13.85;12.45;;;24.30;66.30;;;;;;4615234;59;21114;-35
2023/06/20 03:41:58;;;;;;;13.85;12.45;;;24.30;66.30;;;;;;4620472;55;21128;-35
2023/06/20 03:46:59;;;;;;;12.73;11.48;;;24.30;66.30;;;;;;4751752;55;21137;-35
2023/06/20 03:52:01;;;;;;;13.27;11.98;;;24.30;66.20;;;;;;4642504;55;21581;-34
2023/06/20 03:57:02;;;;;;;13.88;12.55;;;24.20;66.20;;;;;;4634036;55;21550;-36
2023/06/20 04:02:04;;;;;;;13.07;11.85;;;24.20;66.10;;;;;;4668102;56;21598;-34
2023/06/20 04:07:05;;;;;;;13.18;11.88;;;24.20;66.10;;;;;;4615691;59;21531;-35
2023/06/20 04:12:09;;;;;;;14.00;12.65;;;24.20;66.00;;;;;;4615162;60;21120;-37
2023/06/20 04:17:10;;;;;;;12.68;11.40;;;24.20;66.00;;;;;;4648231;56;21089;-37
2023/06/20 04:22:12;;;;;;;13.62;12.32;;;24.20;66.00;;;;;;4615501;59;21639;-37
2023/06/20 04:27:13;;;;;;;13.18;11.88;;;24.20;65.90;;;;;;4647321;55;21491;-35
2023/06/20 04:32:14;;;;;;;13.80;12.40;;;24.20;65.90;;;;;;4615726;58;21077;-38
2023/06/20 04:37:14;;;;;;;13.13;11.77;;;24.20;65.90;;;;;;4614829;59;21033;-33
2023/06/20 04:42:15;;;;;;;13.35;12.00;;;24.20;65.90;;;;;;4615753;59;21041;-38
2023/06/20 04:47:16;;;;;;;12.80;11.57;;;24.20;65.80;;;;;;4630758;55;21033;-37
2023/06/20 04:52:17;;;;;;;13.25;11.90;;;24.20;65.90;;;;;;4639946;55;21021;-37
2023/06/20 04:57:18;;;;;;;14.45;12.02;;;24.20;65.80;;;;;;4740233;55;21065;-38
2023/06/20 05:02:19;;;;;;;12.95;11.65;;;24.20;65.80;;;;;;4634671;56;21084;-39
2023/06/20 05:07:21;;;;;;;14.27;12.88;;;24.20;65.80;;;;;;4788557;55;21564;-34
2023/06/20 05:12:22;;;;;;;13.27;11.98;;;24.20;65.70;;;;;;4635804;55;21558;-39
2023/06/20 05:17:23;;;;;;;13.80;12.40;;;24.20;65.70;;;;;;4621441;55;21053;-34
2023/06/20 05:22:24;;;;;;;13.73;12.32;;;24.20;65.70;;;;;;4615303;59;21546;-39
2023/06/20 05:27:25;;;;;;;13.52;12.13;;;24.20;65.70;;;;;;4615256;59;21145;-39
2023/06/20 05:32:26;;;;;;;13.55;12.15;;;24.20;65.80;;;;;;4678967;55;21009;-39
2023/06/20 05:37:30;;;;;;;13.40;12.00;;;24.20;65.70;;;;;;4623114;55;21638;-33
2023/06/20 05:42:31;;;;;;;11.90;10.70;;;24.20;65.70;;;;;;4615378;60;21515;-38
2023/06/20 05:47:32;;;;;;;13.30;11.90;;;24.30;65.70;;;;;;4625685;55;21069;-39
2023/06/20 05:52:35;;;;;;;12.40;11.30;;;24.20;65.70;;;;;;4615464;59;21021;-39
2023/06/20 05:57:37;;;;;;;13.80;12.00;;;24.30;65.80;;;;;;4614669;60;21527;-39
2023/06/20 06:02:45;;;;;;;13.55;12.25;;;24.30;65.70;;;;;;4672013;55;21354;-38
2023/06/20 06:07:45;;;;;;;14.50;12.77;;;24.30;65.70;;;;;;4622247;56;21559;-38
2023/06/20 06:12:46;;;;;;;13.48;12.07;;;24.30;65.80;;;;;;4676954;55;21096;-39
2023/06/20 06:17:48;;;;;;;13.68;12.27;;;24.20;65.70;;;;;;4614582;59;21120;-36
2023/06/20 06:22:49;;;;;;;14.30;12.90;;;24.30;65.80;;;;;;4674011;55;21538;-37
2023/06/20 06:27:49;;;;;;;13.73;12.30;;;24.20;65.70;;;;;;4621328;55;21134;-37
2023/06/20 06:32:51;;;;;;;14.43;13.02;;;24.30;65.80;;;;;;4631224;55;21025;-37
2023/06/20 06:37:52;;;;;;;13.88;12.37;;;24.30;65.70;;;;;;4614610;60;21111;-35
2023/06/20 06:42:53;;;;;;;14.55;13.15;;;24.30;66.00;;;;;;4617728;55;21510;-38
2023/06/20 06:47:54;;;;;;;14.60;13.10;;;24.30;65.80;;;;;;4705218;56;21037;-39
2023/06/20 06:52:55;;;;;;;14.30;12.93;;;24.30;65.80;;;;;;4627978;55;21056;-36
2023/06/20 06:57:57;;;;;;;14.75;13.25;;;24.30;65.80;;;;;;4799731;55;21519;-37
2023/06/20 07:02:58;;;;;;;14.63;13.13;;;24.30;65.80;;;;;;4702500;55;21550;-39
2023/06/20 07:07:59;;;;;;;13.93;12.57;;;24.30;65.80;;;;;;4617725;55;21025;-39
2023/06/20 07:13:00;;;;;;;14.55;12.70;;;24.30;65.80;;;;;;4646526;55;21467;-39
2023/06/20 07:18:01;;;;;;;14.52;12.50;;;24.30;65.80;;;;;;4733130;55;21659;-37
2023/06/20 07:23:02;;;;;;;14.13;12.65;;;24.30;65.90;;;;;;4615123;59;21061;-38
2023/06/20 07:28:03;;;;;;;13.95;12.65;;;24.40;65.90;;;;;;4726283;55;21499;-40
2023/06/20 07:33:05;;;;;;;14.02;12.73;;;24.30;65.90;;;;;;4702509;56;21495;-38
2023/06/20 07:38:06;;;;;;;13.60;12.25;;;24.30;66.50;;;;;;4634971;55;21571;-39
2023/06/20 07:43:08;;;;;;;14.85;13.23;;;24.30;65.80;;;;;;4636059;55;21100;-37
2023/06/20 07:48:08;;;;;;;13.65;12.35;;;24.30;65.90;;;;;;4651359;55;21081;-38
2023/06/20 07:53:09;;;;;;;14.55;13.15;;;24.40;65.90;;;;;;4670907;55;21077;-39
2023/06/20 07:58:10;;;;;;;13.40;12.10;;;24.40;65.90;;;;;;4710224;55;21053;-39
2023/06/20 08:03:11;;;;;;;14.13;12.68;;;24.40;65.90;;;;;;4665744;55;21646;-41
2023/06/20 08:08:12;;;;;;;13.93;12.52;;;24.40;65.90;;;;;;4714163;55;21026;-40
2023/06/20 08:13:12;;;;;;;14.50;13.00;;;24.40;66.00;;;;;;4677574;55;21599;-38
2023/06/20 08:18:13;;;;;;;15.23;13.57;;;24.40;65.90;;;;;;4614650;59;21122;-38
2023/06/20 08:23:22;;;;;;;13.93;12.63;;;24.40;66.00;;;;;;4615229;55;20997;-37
2023/06/20 08:28:23;;;;;;;14.57;13.07;;;24.40;66.00;;;;;;4637540;56;21041;-39
2023/06/20 08:33:24;;;;;;;14.32;12.93;;;24.40;66.00;;;;;;4641515;56;21040;-34
2023/06/20 08:38:25;;;;;;;14.68;13.25;;;24.40;66.00;;;;;;4652164;55;21563;-41
2023/06/20 08:43:29;;;;;;;14.52;13.02;;;24.40;66.10;;;;;;4615438;59;21073;-36
2023/06/20 08:48:30;;;;;;;14.48;13.05;;;24.40;66.10;;;;;;4623278;55;22251;-36
2023/06/20 08:53:32;;;;;;;15.00;13.45;;;24.40;66.00;;;;;;4615418;59;21025;-37
2023/06/20 08:58:32;;;;;;;15.20;13.62;;;24.40;66.10;;;;;;4637216;56;21078;-38
2023/06/20 09:03:34;;;;;;;15.45;13.85;;;24.40;66.10;;;;;;4628817;55;21562;-38
2023/06/20 09:08:43;;;;;;;16.30;14.60;;;24.40;66.10;;;;;;4629496;56;21602;-38
2023/06/20 09:13:44;;;;;;;15.73;14.13;;;24.40;66.10;;;;;;4771439;56;21017;-39
2023/06/20 09:18:49;;;;;;;16.05;14.43;;;24.40;66.10;;;;;;4679063;56;21093;-38
2023/06/20 09:24:02;;;;;;;16.07;14.47;;;24.40;66.10;;;;;;4615693;60;21025;-38
2023/06/20 09:29:20;;;;;;;15.45;13.95;;;24.40;66.10;;;;;;4633489;56;21084;-40
2023/06/20 09:34:21;;;;;;;16.50;14.90;;;24.40;66.10;;;;;;4643697;55;21567;-38
2023/06/20 09:39:24;;;;;;;17.55;14.75;;;24.40;66.10;;;;;;4621897;55;21511;-39
2023/06/20 09:44:26;;;;;;;15.88;14.35;;;24.50;66.20;;;;;;4615418;60;21021;-37
2023/06/20 09:49:30;;;;;;;16.20;14.50;;;24.40;66.10;;;;;;4666319;55;21490;-38
2023/06/20 09:54:56;;;;;;;16.77;14.68;;;24.40;66.10;;;;;;4704968;56;21066;-38
2023/06/20 09:59:57;;;;;;;17.30;15.48;;;24.40;66.10;;;;;;4673335;56;21551;-37
2023/06/20 10:04:59;;;;;;;18.65;16.35;;;24.50;66.20;;;;;;4650676;55;21048;-40
2023/06/20 10:10:00;;;;;;;17.50;15.68;;;24.50;66.20;;;;;;4628177;56;21084;-38
2023/06/20 10:15:07;;;;;;;17.37;15.57;;;24.50;66.20;;;;;;4624193;56;21025;-42
2023/06/20 10:20:23;;;;;;;17.00;15.15;;;24.50;66.20;;;;;;4661120;56;21021;-38
2023/06/20 10:25:25;;;;;;;18.37;15.68;;;24.50;66.20;;;;;;4646842;56;21009;-37
2023/06/20 10:31:03;;;;;;;18.17;15.52;;;24.50;66.20;;;;;;4619372;56;21025;-36
2023/06/20 10:36:09;;;;;;;18.33;16.40;;;24.50;66.20;;;;;;4629560;56;21184;-38
2023/06/20 10:41:21;;;;;;;19.00;17.00;;;24.50;66.20;;;;;;4642391;56;21060;-38
2023/06/20 10:46:29;;;;;;;18.02;16.00;;;24.50;66.20;;;;;;4617575;56;21025;-39
2023/06/20 10:51:30;;;;;;;19.48;17.42;;;24.50;66.20;;;;;;4615885;56;21069;-40
2023/06/20 10:56:34;;;;;;;19.25;17.25;;;24.50;66.30;;;;;;4614824;59;21029;-40
2023/06/20 11:01:35;;;;;;;18.42;16.52;;;24.50;67.00;;;;;;4667596;56;21109;-38
2023/06/20 11:06:37;;;;;;;19.15;17.15;;;24.50;66.20;;;;;;4676548;56;21065;-40
2023/06/20 11:11:39;;;;;;;19.62;17.60;;;24.50;66.30;;;;;;4629211;56;21834;-39
2023/06/20 11:16:41;;;;;;;18.65;16.80;;;24.60;66.30;;;;;;4661457;56;21579;-37
2023/06/20 11:21:43;;;;;;;20.20;18.00;;;24.60;66.30;;;;;;4660897;56;21029;-39
2023/06/20 11:26:44;;;;;;;20.77;18.62;;;24.60;66.40;;;;;;4622354;55;21499;-40
2023/06/20 11:31:45;;;;;;;20.40;17.95;;;24.60;66.40;;;;;;4638646;55;21093;-40
2023/06/20 11:36:50;;;;;;;20.88;18.67;;;24.60;66.50;;;;;;4676917;56;21484;-39
2023/06/20 11:41:51;;;;;;;21.55;19.35;;;24.60;66.40;;;;;;4640355;56;21438;-39
2023/06/20 11:46:57;;;;;;;20.30;18.20;;;24.60;66.40;;;;;;4635484;56;21029;-39
2023/06/20 11:51:58;;;;;;;22.10;19.73;;;24.60;66.40;;;;;;4613867;60;21611;-39
2023/06/20 11:56:59;;;;;;;23.12;20.17;;;24.60;66.50;;;;;;4621357;56;21041;-39
2023/06/20 12:01:59;;;;;;;21.55;19.30;;;24.70;66.40;;;;;;4614021;60;21583;-36
2023/06/20 12:07:04;;;;;;;22.55;20.25;;;24.60;66.70;;;;;;4613467;60;21539;-41
2023/06/20 12:12:06;;;;;;;22.87;20.48;;;24.60;66.70;;;;;;4613171;58;21029;-46
2023/06/20 12:17:06;;;;;;;22.00;19.65;;;24.60;66.70;;;;;;4614144;60;21017;-39
2023/06/20 12:22:07;;;;;;;21.73;19.48;;;24.60;66.80;;;;;;4654490;55;21127;-37
2023/06/20 12:27:08;;;;;;;22.23;19.70;;;24.60;66.70;;;;;;4630101;55;21379;-37
2023/06/20 12:32:09;;;;;;;21.40;19.20;;;24.60;66.70;;;;;;4616816;56;21009;-37
2023/06/20 12:37:10;;;;;;;22.77;20.37;;;24.70;66.80;;;;;;4614607;59;21113;-38
2023/06/20 12:42:15;;;;;;;21.85;18.87;;;24.60;66.70;;;;;;4722415;56;21049;-38
2023/06/20 12:47:16;;;;;;;23.67;21.15;;;24.60;66.70;;;;;;4651207;55;21483;-37
2023/06/20 12:52:17;;;;;;;22.65;20.37;;;24.70;66.70;;;;;;4615353;55;21094;-37
2023/06/20 12:57:18;;;;;;;23.40;20.90;;;24.70;66.70;;;;;;4630542;55;21097;-38
2023/06/20 13:02:21;;;;;;;23.35;20.92;;;24.70;66.80;;;;;;4647373;55;21554;-36
2023/06/20 13:07:22;;;;;;;23.05;20.65;;;24.70;66.70;;;;;;4615196;60;21033;-38
2023/06/20 13:12:26;;;;;;;22.67;20.30;;;24.70;66.70;;;;;;4632109;56;21106;-39
2023/06/20 13:17:27;;;;;;;24.63;21.75;;;24.70;66.70;;;;;;4635012;55;21532;-37
2023/06/20 13:22:28;;;;;;;22.60;20.17;;;24.70;66.60;;;;;;4725837;55;21556;-38
2023/06/20 13:27:29;;;;;;;22.55;20.25;;;24.70;66.70;;;;;;4615283;60;21105;-38
2023/06/20 13:32:30;;;;;;;22.58;20.27;;;24.70;66.60;;;;;;4653090;55;21049;-38
2023/06/20 13:37:32;;;;;;;23.48;20.92;;;24.70;66.60;;;;;;4693262;56;21651;-37
2023/06/20 13:42:33;;;;;;;23.10;20.70;;;24.70;66.60;;;;;;4615530;60;21633;-39
2023/06/20 13:47:34;;;;;;;23.20;20.73;;;24.70;66.60;;;;;;4630480;56;21070;-38
2023/06/20 13:52:36;;;;;;;23.12;20.67;;;24.70;66.60;;;;;;4628424;55;21091;-35
2023/06/20 13:57:37;;;;;;;24.42;21.85;;;24.70;66.60;;;;;;4634675;55;21049;-35
2023/06/20 14:02:39;;;;;;;23.33;20.95;;;24.70;66.50;;;;;;4675048;55;21069;-38
2023/06/20 14:07:41;;;;;;;22.83;20.42;;;24.70;66.50;;;;;;4649919;56;21575;-39
2023/06/20 14:12:42;;;;;;;23.27;20.88;;;24.70;66.50;;;;;;4631983;56;21069;-37
2023/06/20 14:17:43;;;;;;;23.70;21.33;;;24.70;66.50;;;;;;4614766;55;21145;-38
2023/06/20 14:22:44;;;;;;;24.45;21.92;;;24.70;66.50;;;;;;4622648;55;21021;-37
2023/06/20 14:27:45;;;;;;;23.15;20.77;;;24.80;66.50;;;;;;4615454;59;21511;-38
2023/06/20 14:32:46;;;;;;;23.35;20.95;;;24.80;66.60;;;;;;4757597;55;21073;-38
2023/06/20 14:37:47;;;;;;;23.48;20.50;;;24.80;66.50;;;;;;4619867;56;21057;-35
2023/06/20 14:42:48;;;;;;;23.45;20.95;;;24.80;66.50;;;;;;4656379;55;21475;-37
2023/06/20 14:47:49;;;;;;;22.75;20.42;;;24.80;66.60;;;;;;4617332;55;21048;-38
2023/06/20 14:52:55;;;;;;;23.12;20.70;;;24.80;66.50;;;;;;4615342;60;21029;-38
2023/06/20 14:57:56;;;;;;;22.48;20.08;;;24.80;66.50;;;;;;4635585;56;21033;-36
2023/06/20 15:02:57;;;;;;;22.95;20.55;;;24.80;66.50;;;;;;4615611;60;21065;-37
2023/06/20 15:07:58;;;;;;;23.60;21.10;;;24.80;66.50;;;;;;4615479;59;21065;-41
2023/06/20 15:12:59;;;;;;;23.62;21.33;;;24.80;66.50;;;;;;4616610;56;21793;-39
2023/06/20 15:18:01;;;;;;;22.98;20.58;;;24.80;66.50;;;;;;4710378;55;21037;-35
2023/06/20 15:23:04;;;;;;;22.20;19.90;;;24.80;66.50;;;;;;4615955;56;21085;-36
2023/06/20 15:28:05;;;;;;;22.80;20.40;;;24.80;66.50;;;;;;4652863;55;21076;-38
2023/06/20 15:33:06;;;;;;;22.60;20.30;;;24.80;66.50;;;;;;4675224;55;21476;-39
2023/06/20 15:38:07;;;;;;;23.67;21.10;;;24.80;66.50;;;;;;4624676;56;21073;-39
2023/06/20 15:43:08;;;;;;;23.23;20.77;;;24.80;66.50;;;;;;4638115;55;21488;-35
2023/06/20 15:48:10;;;;;;;23.73;20.73;;;24.80;66.60;;;;;;4647299;55;21029;-38
2023/06/20 15:53:11;;;;;;;22.52;20.23;;;24.80;66.60;;;;;;4615691;60;21514;-37
2023/06/20 15:58:22;;;;;;;23.05;20.70;;;24.80;66.60;;;;;;4660327;55;21096;-36
2023/06/20 16:03:23;;;;;;;23.45;21.02;;;24.80;66.70;;;;;;4644608;56;21048;-36
2023/06/20 16:08:24;;;;;;;22.62;20.23;;;24.80;66.60;;;;;;4615415;56;21084;-39
2023/06/20 16:13:25;;;;;;;22.90;20.58;;;24.90;66.70;;;;;;4626468;55;21100;-36
2023/06/20 16:18:26;;;;;;;24.15;21.73;;;24.80;66.70;;;;;;4614940;59;21523;-37
2023/06/20 16:23:27;;;;;;;21.90;19.70;;;24.80;66.70;;;;;;4622213;55;21084;-38
2023/06/20 16:28:28;;;;;;;22.62;20.33;;;24.80;66.70;;;;;;4621923;55;21550;-38
2023/06/20 16:33:28;;;;;;;22.87;20.58;;;24.80;66.80;;;;;;4657517;55;21016;-37
2023/06/20 16:38:29;;;;;;;23.77;21.37;;;24.80;66.80;;;;;;4636451;55;21053;-34
2023/06/20 16:43:30;;;;;;;23.75;21.35;;;24.80;66.70;;;;;;4615878;60;21094;-39
2023/06/20 16:48:31;;;;;;;22.75;20.52;;;24.80;66.80;;;;;;4614956;60;21144;-38
2023/06/20 16:53:32;;;;;;;22.42;20.20;;;24.80;66.80;;;;;;4645597;56;21025;-38
2023/06/20 16:58:33;;;;;;;22.05;19.75;;;24.90;66.80;;;;;;4628265;56;21025;-36
2023/06/20 17:03:34;;;;;;;24.30;22.00;;;24.90;66.90;;;;;;4615493;59;21033;-37
2023/06/20 17:08:35;;;;;;;23.17;20.77;;;24.90;66.90;;;;;;4740022;55;21040;-33
2023/06/20 17:13:36;;;;;;;23.75;21.35;;;24.90;66.90;;;;;;4667930;55;21077;-37
2023/06/20 17:18:36;;;;;;;24.12;21.62;;;24.90;67.00;;;;;;4682213;56;21134;-37
2023/06/20 17:23:40;;;;;;;23.35;21.05;;;24.90;67.00;;;;;;4615451;59;21489;-38
2023/06/20 17:28:41;;;;;;;22.37;20.08;;;24.90;67.00;;;;;;4672421;55;21551;-37
2023/06/20 17:33:44;;;;;;;22.65;20.45;;;24.90;67.00;;;;;;4642119;55;21538;-39
2023/06/20 17:38:44;;;;;;;23.83;21.25;;;24.90;67.00;;;;;;4614357;59;21628;-37
2023/06/20 17:43:45;;;;;;;22.87;20.48;;;24.90;67.10;;;;;;4615217;59;21034;-34
2023/06/20 17:48:46;;;;;;;23.20;20.55;;;24.90;67.10;;;;;;4615324;60;21476;-37
2023/06/20 17:53:47;;;;;;;23.33;21.00;;;24.90;67.10;;;;;;4666686;55;21166;-37
2023/06/20 17:58:52;;;;;;;22.92;20.70;;;24.90;67.10;;;;;;4620301;55;21025;-38
2023/06/20 18:03:53;;;;;;;22.87;20.58;;;24.90;67.10;;;;;;4615506;60;21526;-38
2023/06/20 18:08:55;;;;;;;21.73;19.52;;;24.90;67.20;;;;;;4736366;56;21065;-37
2023/06/20 18:13:57;;;;;;;22.62;20.37;;;24.90;67.20;;;;;;4615296;56;21705;-38
2023/06/20 18:18:58;;;;;;;23.27;20.88;;;24.90;67.30;;;;;;4622131;55;21559;-37
2023/06/20 18:23:59;;;;;;;22.77;20.48;;;24.90;67.30;;;;;;4636130;55;21088;-36
2023/06/20 18:28:59;;;;;;;24.42;21.90;;;24.90;67.30;;;;;;4615419;60;21006;-36
2023/06/20 18:34:00;;;;;;;22.77;20.50;;;24.90;67.30;;;;;;4615696;59;21591;-37
2023/06/20 18:39:01;;;;;;;23.85;21.50;;;24.90;67.30;;;;;;4624048;55;21053;-37
2023/06/20 18:44:03;;;;;;;23.75;21.45;;;24.90;67.50;;;;;;4688818;55;21551;-37
2023/06/20 18:49:04;;;;;;;21.55;19.35;;;24.90;67.40;;;;;;4708236;56;21495;-36
2023/06/20 18:54:05;;;;;;;22.55;20.30;;;24.90;67.40;;;;;;4626661;55;21515;-36
2023/06/20 18:59:06;;;;;;;23.45;21.10;;;24.90;67.50;;;;;;4614884;60;21062;-37
2023/06/20 19:04:07;;;;;;;22.87;20.50;;;24.90;67.60;;;;;;4637546;55;21037;-35
2023/06/20 19:09:08;;;;;;;21.70;19.60;;;24.90;67.60;;;;;;4624544;55;21355;-36
2023/06/20 19:14:11;;;;;;;22.10;19.73;;;24.90;67.60;;;;;;4647782;55;21120;-36
2023/06/20 19:19:11;;;;;;;22.52;20.33;;;24.90;67.60;;;;;;4626464;55;21614;-35
2023/06/20 19:24:13;;;;;;;23.20;20.90;;;24.90;67.60;;;;;;4618965;55;21029;-36
2023/06/20 19:29:14;;;;;;;23.23;20.92;;;24.90;67.70;;;;;;4778284;55;21496;-35
2023/06/20 19:34:15;;;;;;;22.45;20.20;;;24.90;67.80;;;;;;4658766;55;21037;-42
2023/06/20 19:39:16;;;;;;;24.02;21.62;;;24.90;67.70;;;;;;4655361;55;21583;-33
2023/06/20 19:44:17;;;;;;;22.50;20.30;;;24.90;67.80;;;;;;4661412;55;21108;-37
2023/06/20 19:49:18;;;;;;;22.35;20.08;;;24.90;67.90;;;;;;4694648;55;21471;-38
2023/06/20 19:54:19;;;;;;;23.45;21.10;;;24.90;67.80;;;;;;4693305;55;21025;-35
2023/06/20 19:59:21;;;;;;;23.42;21.02;;;24.90;67.90;;;;;;4615423;60;21093;-37
2023/06/20 20:04:22;;;;;;;23.52;21.23;;;24.90;67.90;;;;;;4615544;60;21510;-38
2023/06/20 20:09:23;;;;;;;23.17;20.83;;;24.90;67.90;;;;;;4615432;60;21017;-37
2023/06/20 20:14:24;;;;;;;22.02;19.83;;;24.90;67.90;;;;;;4764306;55;21041;-36
2023/06/20 20:19:28;;;;;;;22.55;20.45;;;24.90;67.90;;;;;;4712147;56;21093;-38
2023/06/20 20:24:29;;;;;;;22.10;19.90;;;24.90;68.00;;;;;;4726463;56;21017;-35
2023/06/20 20:29:30;;;;;;;22.62;20.40;;;24.90;68.00;;;;;;4677118;55;21073;-36
2023/06/20 20:34:34;;;;;;;21.83;19.73;;;24.90;68.10;;;;;;4615183;60;21108;-36
2023/06/20 20:39:35;;;;;;;22.25;20.05;;;24.90;68.00;;;;;;4649071;55;21519;-34
2023/06/20 20:44:35;;;;;;;21.60;19.48;;;24.90;68.10;;;;;;4625653;55;21045;-37
2023/06/20 20:49:36;;;;;;;21.92;19.73;;;24.90;68.10;;;;;;4615575;57;21025;-36
2023/06/20 20:54:37;;;;;;;22.55;20.45;;;24.90;68.10;;;;;;4641459;56;21034;-36
2023/06/20 20:59:38;;;;;;;23.35;21.05;;;24.90;68.10;;;;;;4626705;55;21124;-33
2023/06/20 21:04:39;;;;;;;22.70;20.50;;;24.90;68.20;;;;;;4622799;55;21531;-34
2023/06/20 21:09:40;;;;;;;21.50;19.40;;;24.90;68.20;;;;;;4684402;55;21547;-36
2023/06/20 21:14:41;;;;;;;21.52;19.48;;;24.90;68.20;;;;;;4659271;56;21077;-40
2023/06/20 21:19:43;;;;;;;22.45;20.27;;;24.90;68.20;;;;;;4645158;55;21116;-36
2023/06/20 21:24:44;;;;;;;22.40;20.20;;;24.90;68.30;;;;;;4615760;55;21475;-36
2023/06/20 21:29:45;;;;;;;21.73;19.65;;;24.90;68.20;;;;;;4702754;56;21061;-34
2023/06/20 21:34:47;;;;;;;22.35;20.15;;;24.90;68.20;;;;;;4615589;59;21487;-38
2023/06/20 21:39:48;;;;;;;22.10;19.92;;;24.90;68.20;;;;;;4618482;56;21120;-38
2023/06/20 21:44:48;;;;;;;24.65;22.17;;;24.90;68.20;;;;;;4616197;55;21085;-34
2023/06/20 21:49:49;;;;;;;20.83;18.92;;;24.90;68.30;;;;;;4715035;55;21105;-37
2023/06/20 21:54:50;;;;;;;21.65;19.65;;;24.90;68.30;;;;;;4615373;60;21523;-36
2023/06/20 21:59:51;;;;;;;20.48;18.45;;;24.90;68.30;;;;;;4685041;55;21009;-36
2023/06/20 22:04:52;;;;;;;22.85;20.55;;;24.90;68.30;;;;;;4698738;55;21539;-35
2023/06/20 22:09:53;;;;;;;19.55;17.67;;;24.90;68.30;;;;;;4626413;55;21094;-39
2023/06/20 22:14:57;;;;;;;21.15;19.05;;;25.00;68.40;;;;;;4626557;55;21147;-40
2023/06/20 22:19:57;;;;;;;20.12;18.15;;;24.90;68.40;;;;;;4627963;55;21543;-37
2023/06/20 22:24:58;;;;;;;20.83;18.73;;;24.90;68.40;;;;;;4662809;55;21033;-38
2023/06/20 22:29:59;;;;;;;19.52;17.67;;;24.90;68.40;;;;;;4628216;56;21483;-38
2023/06/20 22:35:00;;;;;;;19.77;17.87;;;24.90;68.40;;;;;;4615273;60;21462;-35
2023/06/20 22:40:03;;;;;;;21.27;19.17;;;24.90;68.40;;;;;;4614490;60;21086;-37
2023/06/20 22:45:06;;;;;;;20.02;18.00;;;24.90;68.40;;;;;;4694148;55;21681;-37
2023/06/20 22:50:08;;;;;;;19.25;17.35;;;24.90;68.40;;;;;;4626498;56;21491;-39
2023/06/20 22:55:09;;;;;;;19.27;17.45;;;24.90;68.40;;;;;;4614804;57;21122;-38
2023/06/20 23:00:10;;;;;;;18.83;17.02;;;24.90;68.40;;;;;;4676295;55;21088;-37
2023/06/20 23:05:11;;;;;;;20.08;18.17;;;24.90;68.40;;;;;;4656472;56;21085;-37
2023/06/20 23:10:12;;;;;;;19.70;17.85;;;24.90;68.40;;;;;;4615909;59;21092;-38
2023/06/20 23:15:13;;;;;;;19.37;17.55;;;24.90;68.40;;;;;;4754004;55;21029;-38
2023/06/20 23:20:14;;;;;;;20.90;18.90;;;24.90;68.50;;;;;;4668433;55;21081;-36
2023/06/20 23:25:16;;;;;;;19.98;18.05;;;24.90;68.40;;;;;;4654224;56;21148;-34
2023/06/20 23:30:17;;;;;;;20.25;18.27;;;24.90;68.40;;;;;;4615694;59;21101;-34
2023/06/20 23:35:18;;;;;;;19.25;17.40;;;24.90;68.50;;;;;;4650431;55;21538;-35
2023/06/20 23:40:19;;;;;;;19.55;17.65;;;24.90;68.50;;;;;;4614857;59;21105;-37
2023/06/20 23:45:20;;;;;;;19.37;17.58;;;24.90;68.50;;;;;;4650824;55;21810;-37
2023/06/20 23:50:21;;;;;;;19.65;17.75;;;24.90;68.50;;;;;;4727775;55;21014;-34
2023/06/20 23:55:22;;;;;;;21.08;19.08;;;24.90;68.50;;;;;;4664964;55;21109;-37
